Terminal Aerodrome Forecast
Issued by NWS

Home | Current Version | Previous Version | Text Only | Print | Product List | Glossary On
Versions: 1 2 3 4 5 6 7 8 9 10 11 12 13 14 15 16
000
FTUS45 KSLC 082044 AAA
TAFEVW
TAF AMD
KEVW 082044Z 0821/0918 09012KT 4SM -SN SCT020 BKN040
     FM082300 22010KT 1SM -SN BR SCT007 BKN015
     FM090600 20015G24KT 1/2SM BLSN BKN008
     FM091200 23015KT 2SM -SN BKN008 OVC015=

USA.gov is the U.S. government's official web portal to all federal, state and local government web resources and services.